sensor_id;sensor_type;location;lat;lon;timestamp;pressure;altitude;pressure_sealevel;temperature;humidity
17649;BME280;8943;51.110;-4.158;2023-07-28T05:17:39;100152.75;;;21.60;58.21
17649;BME280;8943;51.110;-4.158;2023-07-28T05:20:10;100150.50;;;21.70;57.89
17649;BME280;8943;51.110;-4.158;2023-07-28T05:22:39;100159.13;;;21.80;58.18
17649;BME280;8943;51.110;-4.158;2023-07-28T05:25:08;100148.13;;;21.89;57.93
17649;BME280;8943;51.110;-4.158;2023-07-28T05:27:38;100147.31;;;21.95;58.26
17649;BME280;8943;51.110;-4.158;2023-07-28T05:30:08;100148.19;;;22.02;58.39
17649;BME280;8943;51.110;-4.158;2023-07-28T05:32:40;100150.38;;;22.13;58.01
17649;BME280;8943;51.110;-4.158;2023-07-28T05:35:09;100150.44;;;22.26;57.88
17649;BME280;8943;51.110;-4.158;2023-07-28T05:37:38;100142.47;;;22.25;58.11
17649;BME280;8943;51.110;-4.158;2023-07-28T05:40:12;100154.00;;;22.33;57.88
17649;BME280;8943;51.110;-4.158;2023-07-28T05:42:58;100145.63;;;22.28;57.63
17649;BME280;8943;51.110;-4.158;2023-07-28T05:45:30;100147.06;;;22.24;57.53
17649;BME280;8943;51.110;-4.158;2023-07-28T05:48:37;100153.31;;;22.18;57.49
17649;BME280;8943;51.110;-4.158;2023-07-28T05:51:30;100148.22;;;22.08;57.64
17649;BME280;8943;51.110;-4.158;2023-07-28T05:54:06;100157.88;;;22.11;57.87
17649;BME280;8943;51.110;-4.158;2023-07-28T05:56:35;100148.22;;;22.08;57.78
17649;BME280;8943;51.110;-4.158;2023-07-28T05:59:08;100156.84;;;22.12;57.80
17649;BME280;8943;51.110;-4.158;2023-07-28T06:01:37;100155.81;;;22.20;57.83
17649;BME280;8943;51.110;-4.158;2023-07-28T06:04:07;100152.06;;;22.21;58.08
17649;BME280;8943;51.110;-4.158;2023-07-28T06:06:40;100158.34;;;22.21;58.32
17649;BME280;8943;51.110;-4.158;2023-07-28T06:09:21;100159.19;;;22.28;58.25
17649;BME280;8943;51.110;-4.158;2023-07-28T06:15:15;100160.84;;;22.29;58.07
17649;BME280;8943;51.110;-4.158;2023-07-28T06:24:16;100149.22;;;22.35;58.14
17649;BME280;8943;51.110;-4.158;2023-07-28T06:27:12;100155.88;;;22.33;58.16
17649;BME280;8943;51.110;-4.158;2023-07-28T06:29:42;100147.13;;;22.38;58.29
17649;BME280;8943;51.110;-4.158;2023-07-28T06:32:14;100156.94;;;22.39;58.40
17649;BME280;8943;51.110;-4.158;2023-07-28T06:34:45;100157.59;;;22.47;58.25
17649;BME280;8943;51.110;-4.158;2023-07-28T06:37:15;100155.09;;;22.59;58.16
17649;BME280;8943;51.110;-4.158;2023-07-28T06:50:28;100162.75;;;22.90;58.09
17649;BME280;8943;51.110;-4.158;2023-07-28T07:24:34;100188.81;;;22.23;58.03
17649;BME280;8943;51.110;-4.158;2023-07-28T07:27:04;100188.41;;;22.26;58.38
17649;BME280;8943;51.110;-4.158;2023-07-28T07:29:38;100179.63;;;22.24;58.31
17649;BME280;8943;51.110;-4.158;2023-07-28T07:32:12;100187.59;;;22.32;58.51
17649;BME280;8943;51.110;-4.158;2023-07-28T07:34:46;100189.72;;;22.37;58.34
17649;BME280;8943;51.110;-4.158;2023-07-28T07:37:14;100188.44;;;22.40;58.79
17649;BME280;8943;51.110;-4.158;2023-07-28T07:39:44;100188.06;;;22.49;59.02
17649;BME280;8943;51.110;-4.158;2023-07-28T07:42:13;100190.63;;;22.57;58.91
17649;BME280;8943;51.110;-4.158;2023-07-28T07:44:41;100183.97;;;22.67;59.03
17649;BME280;8943;51.110;-4.158;2023-07-28T14:35:32;100188.53;;;24.77;46.58
17649;BME280;8943;51.110;-4.158;2023-07-28T14:40:55;100183.13;;;24.70;47.16
17649;BME280;8943;51.110;-4.158;2023-07-28T14:46:12;100166.38;;;24.98;47.84
17649;BME280;8943;51.110;-4.158;2023-07-28T14:48:43;100168.56;;;25.21;47.56
17649;BME280;8943;51.110;-4.158;2023-07-28T14:54:21;100168.81;;;25.88;47.00
17649;BME280;8943;51.110;-4.158;2023-07-28T14:56:57;100164.78;;;26.27;46.71
17649;BME280;8943;51.110;-4.158;2023-07-28T14:59:27;100155.03;;;26.50;47.59
17649;BME280;8943;51.110;-4.158;2023-07-28T15:44:43;100170.41;;;28.05;38.51
17649;BME280;8943;51.110;-4.158;2023-07-28T15:53:08;100155.69;;;28.34;38.70
17649;BME280;8943;51.110;-4.158;2023-07-28T15:58:30;100156.59;;;28.52;37.93
17649;BME280;8943;51.110;-4.158;2023-07-28T16:04:15;100163.50;;;27.90;39.46
17649;BME280;8943;51.110;-4.158;2023-07-28T16:10:14;100165.44;;;27.78;39.65
17649;BME280;8943;51.110;-4.158;2023-07-28T17:20:09;100156.47;;;23.16;50.32
17649;BME280;8943;51.110;-4.158;2023-07-28T17:22:54;100144.75;;;23.42;50.40
17649;BME280;8943;51.110;-4.158;2023-07-28T17:25:24;100150.81;;;23.77;50.50
17649;BME280;8943;51.110;-4.158;2023-07-28T17:46:38;100151.25;;;24.32;46.63
17649;BME280;8943;51.110;-4.158;2023-07-28T17:52:23;100162.09;;;23.81;47.20
17649;BME280;8943;51.110;-4.158;2023-07-28T17:54:57;100155.22;;;23.58;47.68
17649;BME280;8943;51.110;-4.158;2023-07-28T17:57:29;100155.22;;;23.38;47.80
17649;BME280;8943;51.110;-4.158;2023-07-28T18:00:00;100157.72;;;23.27;48.21
17649;BME280;8943;51.110;-4.158;2023-07-28T18:02:29;100153.16;;;23.14;48.81
17649;BME280;8943;51.110;-4.158;2023-07-28T18:05:00;100152.72;;;23.04;49.31
17649;BME280;8943;51.110;-4.158;2023-07-28T18:07:37;100151.88;;;22.97;49.66
17649;BME280;8943;51.110;-4.158;2023-07-28T18:10:26;100153.69;;;22.83;49.86
17649;BME280;8943;51.110;-4.158;2023-07-28T18:12:55;100146.81;;;22.80;50.27
17649;BME280;8943;51.110;-4.158;2023-07-28T18:15:24;100146.16;;;22.78;50.44
17649;BME280;8943;51.110;-4.158;2023-07-28T18:18:01;100150.56;;;22.79;50.73
17649;BME280;8943;51.110;-4.158;2023-07-28T18:20:31;100155.78;;;22.81;50.72
17649;BME280;8943;51.110;-4.158;2023-07-28T18:23:04;100161.84;;;22.76;51.25
17649;BME280;8943;51.110;-4.158;2023-07-28T18:25:33;100157.25;;;22.77;51.34
17649;BME280;8943;51.110;-4.158;2023-07-28T18:28:05;100166.00;;;22.79;51.58
17649;BME280;8943;51.110;-4.158;2023-07-28T18:30:34;100156.63;;;22.81;51.51
17649;BME280;8943;51.110;-4.158;2023-07-28T18:33:06;100154.53;;;22.83;51.41
17649;BME280;8943;51.110;-4.158;2023-07-28T18:35:45;100163.31;;;22.85;51.59
17649;BME280;8943;51.110;-4.158;2023-07-28T18:57:33;100148.69;;;22.12;53.55
17649;BME280;8943;51.110;-4.158;2023-07-28T19:00:29;100144.31;;;22.11;53.70
17649;BME280;8943;51.110;-4.158;2023-07-28T19:03:14;100135.75;;;22.14;53.27
17649;BME280;8943;51.110;-4.158;2023-07-28T19:05:52;100145.28;;;22.03;53.52
17649;BME280;8943;51.110;-4.158;2023-07-28T19:08:22;100148.69;;;22.12;53.29
17649;BME280;8943;51.110;-4.158;2023-07-28T19:10:51;100152.44;;;22.11;53.30
17649;BME280;8943;51.110;-4.158;2023-07-28T19:13:21;100149.47;;;22.06;53.47
17649;BME280;8943;51.110;-4.158;2023-07-28T19:15:50;100152.81;;;22.08;53.27
17649;BME280;8943;51.110;-4.158;2023-07-28T19:18:21;100153.69;;;22.15;53.04
17649;BME280;8943;51.110;-4.158;2023-07-28T19:20:51;100161.84;;;22.15;53.56
17649;BME280;8943;51.110;-4.158;2023-07-28T19:23:21;100160.38;;;22.13;53.51
17649;BME280;8943;51.110;-4.158;2023-07-28T19:28:39;100159.69;;;22.04;53.50
17649;BME280;8943;51.110;-4.158;2023-07-28T19:36:53;100164.47;;;22.02;54.13
17649;BME280;8943;51.110;-4.158;2023-07-28T19:39:37;100161.09;;;22.00;53.93
17649;BME280;8943;51.110;-4.158;2023-07-28T19:42:28;100154.25;;;22.04;53.94
17649;BME280;8943;51.110;-4.158;2023-07-28T19:45:14;100160.50;;;22.04;54.07
17649;BME280;8943;51.110;-4.158;2023-07-28T19:47:43;100160.31;;;22.06;54.02
17649;BME280;8943;51.110;-4.158;2023-07-28T19:50:22;100150.31;;;22.06;53.85
17649;BME280;8943;51.110;-4.158;2023-07-28T19:53:21;100151.09;;;22.00;54.19
17649;BME280;8943;51.110;-4.158;2023-07-28T19:56:00;100150.69;;;22.03;53.88
17649;BME280;8943;51.110;-4.158;2023-07-28T19:58:42;100152.34;;;21.98;54.17
17649;BME280;8943;51.110;-4.158;2023-07-28T20:01:13;100145.03;;;21.98;54.15
17649;BME280;8943;51.110;-4.158;2023-07-28T20:03:44;100145.25;;;21.97;54.11
17649;BME280;8943;51.110;-4.158;2023-07-28T20:06:13;100143.16;;;21.99;54.09
17649;BME280;8943;51.110;-4.158;2023-07-28T20:08:43;100146.50;;;22.01;53.67
17649;BME280;8943;51.110;-4.158;2023-07-28T20:11:12;100156.09;;;21.97;53.88
17649;BME280;8943;51.110;-4.158;2023-07-28T20:13:41;100148.56;;;21.92;53.96
17649;BME280;8943;51.110;-4.158;2023-07-28T20:16:10;100141.03;;;21.88;54.12
17649;BME280;8943;51.110;-4.158;2023-07-28T20:18:40;100147.50;;;21.87;53.96
17649;BME280;8943;51.110;-4.158;2023-07-28T20:21:16;100166.25;;;21.81;54.07
17649;BME280;8943;51.110;-4.158;2023-07-28T20:23:45;100155.78;;;21.78;54.19
17649;BME280;8943;51.110;-4.158;2023-07-28T20:26:14;100157.59;;;21.71;54.31
17649;BME280;8943;51.110;-4.158;2023-07-28T20:28:43;100161.78;;;21.67;54.07
17649;BME280;8943;51.110;-4.158;2023-07-28T20:31:12;100161.72;;;21.60;54.64
17649;BME280;8943;51.110;-4.158;2023-07-28T20:33:43;100171.50;;;21.62;54.47
17649;BME280;8943;51.110;-4.158;2023-07-28T20:36:14;100170.06;;;21.59;54.63
17649;BME280;8943;51.110;-4.158;2023-07-28T20:38:45;100156.28;;;21.60;54.55
17649;BME280;8943;51.110;-4.158;2023-07-28T20:41:14;100169.66;;;21.62;54.38
17649;BME280;8943;51.110;-4.158;2023-07-28T20:43:49;100162.53;;;21.61;54.48
17649;BME280;8943;51.110;-4.158;2023-07-28T20:46:19;100157.53;;;21.58;54.79
17649;BME280;8943;51.110;-4.158;2023-07-28T20:49:01;100157.34;;;21.59;54.80
17649;BME280;8943;51.110;-4.158;2023-07-28T20:51:35;100160.25;;;21.58;54.78
17649;BME280;8943;51.110;-4.158;2023-07-28T20:54:04;100160.66;;;21.62;54.67
17649;BME280;8943;51.110;-4.158;2023-07-28T20:56:35;100160.28;;;21.65;54.69
17649;BME280;8943;51.110;-4.158;2023-07-28T20:59:06;100155.06;;;21.63;54.69
17649;BME280;8943;51.110;-4.158;2023-07-28T21:01:39;100144.63;;;21.67;54.74
17649;BME280;8943;51.110;-4.158;2023-07-28T21:04:10;100145.91;;;21.64;54.77
17649;BME280;8943;51.110;-4.158;2023-07-28T21:06:39;100146.69;;;21.58;54.84
17649;BME280;8943;51.110;-4.158;2023-07-28T21:09:08;100151.69;;;21.61;55.18
17649;BME280;8943;51.110;-4.158;2023-07-28T21:11:39;100152.72;;;21.53;54.94
17649;BME280;8943;51.110;-4.158;2023-07-28T21:14:17;100147.09;;;21.55;55.05
17649;BME280;8943;51.110;-4.158;2023-07-28T21:16:47;100150.00;;;21.53;54.94
17649;BME280;8943;51.110;-4.158;2023-07-28T21:19:21;100153.94;;;21.51;54.88
17649;BME280;8943;51.110;-4.158;2023-07-28T21:21:50;100158.13;;;21.53;55.15
17649;BME280;8943;51.110;-4.158;2023-07-28T21:24:19;100157.06;;;21.48;54.97
17649;BME280;8943;51.110;-4.158;2023-07-28T21:26:49;100157.69;;;21.50;55.03
17649;BME280;8943;51.110;-4.158;2023-07-28T21:29:18;100154.34;;;21.48;54.98
17649;BME280;8943;51.110;-4.158;2023-07-28T21:31:47;100160.78;;;21.47;54.68
17649;BME280;8943;51.110;-4.158;2023-07-28T21:34:15;100170.03;;;21.52;54.91
17649;BME280;8943;51.110;-4.158;2023-07-28T21:36:46;100160.59;;;21.48;54.85
17649;BME280;8943;51.110;-4.158;2023-07-28T21:39:15;100153.69;;;21.46;54.96
17649;BME280;8943;51.110;-4.158;2023-07-28T21:41:43;100157.00;;;21.41;54.96
17649;BME280;8943;51.110;-4.158;2023-07-28T21:44:32;100161.56;;;21.41;55.03
17649;BME280;8943;51.110;-4.158;2023-07-28T21:47:15;100155.53;;;21.39;55.11
17649;BME280;8943;51.110;-4.158;2023-07-28T21:49:48;100149.06;;;21.40;55.22
17649;BME280;8943;51.110;-4.158;2023-07-28T21:52:30;100161.97;;;21.38;55.01
17649;BME280;8943;51.110;-4.158;2023-07-28T21:55:02;100154.69;;;21.38;54.89
17649;BME280;8943;51.110;-4.158;2023-07-28T21:57:30;100163.81;;;21.37;55.01
17649;BME280;8943;51.110;-4.158;2023-07-28T22:00:05;100161.97;;;21.38;55.01
17649;BME280;8943;51.110;-4.158;2023-07-28T22:02:41;100168.81;;;21.33;54.90
17649;BME280;8943;51.110;-4.158;2023-07-28T22:05:10;100161.91;;;21.31;55.22
17649;BME280;8943;51.110;-4.158;2023-07-28T22:07:43;100157.72;;;21.28;55.27
17649;BME280;8943;51.110;-4.158;2023-07-28T22:10:13;100155.84;;;21.29;55.51
17649;BME280;8943;51.110;-4.158;2023-07-28T22:12:47;100156.88;;;21.28;55.28
17649;BME280;8943;51.110;-4.158;2023-07-28T22:15:21;100153.72;;;21.24;54.97
17649;BME280;8943;51.110;-4.158;2023-07-28T22:17:51;100153.06;;;21.22;55.14
17649;BME280;8943;51.110;-4.158;2023-07-28T22:20:29;100158.88;;;21.19;55.21
17649;BME280;8943;51.110;-4.158;2023-07-28T22:23:03;100154.50;;;21.18;55.21
17649;BME280;8943;51.110;-4.158;2023-07-28T22:25:40;100166.34;;;21.17;55.08
17649;BME280;8943;51.110;-4.158;2023-07-28T22:28:11;100155.91;;;21.14;55.19
17649;BME280;8943;51.110;-4.158;2023-07-28T22:30:41;100159.22;;;21.09;55.12
17649;BME280;8943;51.110;-4.158;2023-07-28T22:33:33;100163.38;;;21.12;55.14
17649;BME280;8943;51.110;-4.158;2023-07-28T22:36:09;100159.59;;;21.06;55.17
17649;BME280;8943;51.110;-4.158;2023-07-28T22:38:40;100164.19;;;21.06;55.06
17649;BME280;8943;51.110;-4.158;2023-07-28T22:41:09;100164.56;;;21.03;55.11
17649;BME280;8943;51.110;-4.158;2023-07-28T22:43:46;100158.97;;;21.04;55.01
17649;BME280;8943;51.110;-4.158;2023-07-28T22:46:21;100163.91;;;21.01;54.84
17649;BME280;8943;51.110;-4.158;2023-07-28T22:48:55;100161.59;;;20.98;55.00
17649;BME280;8943;51.110;-4.158;2023-07-28T22:51:27;100158.25;;;20.96;54.97
17649;BME280;8943;51.110;-4.158;2023-07-28T22:57:37;100158.88;;;20.98;54.92
17649;BME280;8943;51.110;-4.158;2023-07-28T23:00:09;100142.00;;;20.96;54.97
17649;BME280;8943;51.110;-4.158;2023-07-28T23:02:41;100147.63;;;20.94;55.00
17649;BME280;8943;51.110;-4.158;2023-07-28T23:05:26;100149.53;;;21.00;54.98
17649;BME280;8943;51.110;-4.158;2023-07-28T23:16:53;100147.41;;;20.96;55.06
17649;BME280;8943;51.110;-4.158;2023-07-28T23:19:35;100151.41;;;21.00;54.78
17649;BME280;8943;51.110;-4.158;2023-07-28T23:22:08;100153.09;;;21.01;54.57
17649;BME280;8943;51.110;-4.158;2023-07-28T23:33:20;100150.31;;;20.94;55.10
17649;BME280;8943;51.110;-4.158;2023-07-28T23:35:48;100148.25;;;20.96;54.87
17649;BME280;8943;51.110;-4.158;2023-07-28T23:38:52;100139.09;;;20.97;54.88
17649;BME280;8943;51.110;-4.158;2023-07-28T23:41:34;100151.34;;;20.93;54.75
17649;BME280;8943;51.110;-4.158;2023-07-28T23:44:16;100149.25;;;20.89;54.85
17649;BME280;8943;51.110;-4.158;2023-07-28T23:46:45;100147.38;;;20.89;54.58
17649;BME280;8943;51.110;-4.158;2023-07-28T23:49:16;100140.81;;;20.83;54.91
17649;BME280;8943;51.110;-4.158;2023-07-28T23:51:46;100140.44;;;20.87;54.73
17649;BME280;8943;51.110;-4.158;2023-07-28T23:54:19;100141.75;;;20.91;54.36
17649;BME280;8943;51.110;-4.158;2023-07-28T23:56:49;100141.88;;;20.82;54.87
17649;BME280;8943;51.110;-4.158;2023-07-28T23:59:18;100147.53;;;20.88;54.85
